Time;durP1;ratioP1;P1;durP2;ratioP2;P2;SDS_P1;SDS_P2;PMS_P1;PMS_P2;Temp;Humidity;BMP_temperature;BMP_pressure;BME280_temperature;BME280_humidity;BME280_pressure;Samples;Min_cycle;Max_cycle;Signal;HPM_P1;HPM_P2
2022/11/20 00:00:50;;;;;;;26.10;11.88;;;;;;;2.41;100.00;101191.63;4973052;28;20054;-56
2022/11/20 00:03:17;;;;;;;25.57;12.23;;;;;;;2.41;100.00;101181.09;4987822;28;20050;-57
2022/11/20 00:05:42;;;;;;;28.23;12.25;;;;;;;2.35;100.00;101176.34;4987115;28;20060;-57
2022/11/20 00:08:08;;;;;;;25.95;11.35;;;;;;;2.40;100.00;101176.78;4989670;28;20049;-58
2022/11/20 00:10:41;;;;;;;23.50;12.20;;;;;;;2.43;100.00;101179.16;4987053;28;20088;-55
2022/11/20 00:13:07;;;;;;;21.52;10.63;;;;;;;2.48;100.00;101175.25;4991738;28;20034;-56
2022/11/20 00:15:32;;;;;;;24.52;11.05;;;;;;;2.50;100.00;101183.88;4987667;28;20045;-58
2022/11/20 00:17:58;;;;;;;29.70;11.63;;;;;;;2.61;100.00;101183.78;4984203;28;20046;-56
2022/11/20 00:20:24;;;;;;;27.75;12.35;;;;;;;2.56;100.00;101178.09;4986183;28;20035;-58
2022/11/20 00:22:50;;;;;;;25.97;11.17;;;;;;;2.17;100.00;101176.09;4986298;28;20033;-58
2022/11/20 00:25:17;;;;;;;23.63;10.80;;;;;;;2.03;100.00;101174.66;4987088;28;20302;-60
2022/11/20 00:27:43;;;;;;;29.02;12.68;;;;;;;2.08;100.00;101185.66;4984487;28;20062;-60
2022/11/20 00:30:09;;;;;;;26.33;11.35;;;;;;;2.36;100.00;101187.72;4986061;28;20035;-59
2022/11/20 00:32:35;;;;;;;25.20;11.77;;;;;;;2.10;100.00;101178.47;4984595;28;20039;-58
2022/11/20 00:35:00;;;;;;;28.97;12.20;;;;;;;1.77;100.00;101169.78;4987845;28;20046;-59
2022/11/20 00:37:26;;;;;;;25.65;11.00;;;;;;;1.71;100.00;101162.41;4988569;28;20985;-59
2022/11/20 00:39:51;;;;;;;30.70;12.33;;;;;;;2.14;100.00;101163.19;4983335;28;20050;-60
2022/11/20 00:42:17;;;;;;;23.93;10.73;;;;;;;2.62;100.00;101161.69;4983824;28;20291;-58
2022/11/20 00:44:42;;;;;;;31.37;12.80;;;;;;;2.34;100.00;101156.19;4984134;28;20304;-60
2022/11/20 00:47:08;;;;;;;28.63;12.18;;;;;;;2.32;100.00;101166.06;4982904;28;20269;-58
2022/11/20 00:49:34;;;;;;;28.27;12.23;;;;;;;1.90;100.00;101166.13;4984860;28;20061;-58
2022/11/20 00:51:59;;;;;;;25.80;11.77;;;;;;;2.24;100.00;101155.31;4985747;28;20042;-59
2022/11/20 00:54:25;;;;;;;26.13;12.02;;;;;;;1.70;100.00;101144.91;4983208;28;20047;-59
2022/11/20 00:56:53;;;;;;;24.47;12.43;;;;;;;1.85;100.00;101153.31;4985029;28;20026;-60
2022/11/20 00:59:19;;;;;;;26.20;11.02;;;;;;;2.21;100.00;101153.78;4983778;28;20058;-61
2022/11/20 01:01:44;;;;;;;24.30;10.13;;;;;;;2.27;100.00;101155.88;4986747;28;20054;-57
2022/11/20 01:04:11;;;;;;;25.92;10.38;;;;;;;2.11;100.00;101153.75;4982255;28;20036;-58
2022/11/20 01:06:38;;;;;;;24.85;11.63;;;;;;;2.17;100.00;101152.34;4986736;28;20090;-59
2022/11/20 01:09:10;;;;;;;26.48;11.18;;;;;;;2.12;100.00;101155.41;4988603;28;20023;-59
2022/11/20 01:11:38;;;;;;;24.92;11.00;;;;;;;2.18;100.00;101155.84;4989638;28;20038;-60
2022/11/20 01:14:07;;;;;;;27.30;12.52;;;;;;;2.02;100.00;101153.69;4989594;28;20039;-59
2022/11/20 01:16:35;;;;;;;24.85;11.68;;;;;;;2.11;100.00;101156.38;4988979;28;20092;-59
2022/11/20 01:19:04;;;;;;;24.05;10.38;;;;;;;2.09;100.00;101154.81;4986428;28;20047;-60
2022/11/20 01:21:34;;;;;;;27.60;12.13;;;;;;;1.96;100.00;101155.91;4986843;28;20031;-59
2022/11/20 01:24:03;;;;;;;29.65;11.65;;;;;;;1.94;100.00;101156.97;4981758;28;20037;-60
2022/11/20 01:26:32;;;;;;;26.27;12.57;;;;;;;2.11;100.00;101159.03;4982241;28;20102;-59
2022/11/20 01:28:58;;;;;;;25.52;11.85;;;;;;;2.12;100.00;101160.69;4984350;28;20034;-58
2022/11/20 01:31:30;;;;;;;31.75;13.15;;;;;;;2.14;100.00;101153.47;4982352;28;20054;-59
2022/11/20 01:33:58;;;;;;;27.17;12.63;;;;;;;2.13;100.00;101146.53;4980941;28;20118;-59
2022/11/20 01:36:26;;;;;;;25.48;12.52;;;;;;;2.09;100.00;101150.41;4990839;28;20094;-60
2022/11/20 01:38:56;;;;;;;27.85;13.02;;;;;;;2.11;100.00;101148.47;4978670;28;20045;-59
2022/11/20 01:44:11;;;;;;;23.85;11.88;;;;;;;2.29;100.00;101150.47;4991109;28;20034;-59
2022/11/20 01:46:41;;;;;;;30.00;12.80;;;;;;;1.93;100.00;101153.50;4988892;28;20054;-60
2022/11/20 01:50:05;;;;;;;27.20;12.20;;;;;;;2.02;100.00;101154.50;4987325;28;20137;-61
2022/11/20 01:52:52;;;;;;;27.05;12.55;;;;;;;2.10;100.00;101141.53;4932054;28;20092;-58
2022/11/20 01:55:23;;;;;;;27.73;12.18;;;;;;;1.90;100.00;101145.84;4914489;28;20077;-60
2022/11/20 01:57:49;;;;;;;28.00;12.55;;;;;;;2.17;100.00;101140.97;4943790;29;20073;-60
2022/11/20 02:00:18;;;;;;;23.42;10.50;;;;;;;1.68;100.00;101131.03;4954327;29;20035;-59
2022/11/20 02:02:50;;;;;;;28.40;13.13;;;;;;;2.11;100.00;101127.34;4953252;29;20038;-59
2022/11/20 02:05:40;;;;;;;25.30;12.27;;;;;;;2.14;100.00;101137.63;4955245;29;20050;-59
2022/11/20 02:08:06;;;;;;;29.63;11.95;;;;;;;1.83;100.00;101145.53;4953779;29;20043;-61
2022/11/20 02:10:34;;;;;;;26.40;12.32;;;;;;;1.88;100.00;101144.31;4953337;29;20040;-61
2022/11/20 02:15:47;;;;;;;25.20;11.50;;;;;;;1.92;100.00;101133.34;4951382;29;20036;-60
2022/11/20 02:18:16;;;;;;;24.30;11.60;;;;;;;1.74;100.00;101134.94;4937063;29;20043;-60
2022/11/20 02:20:44;;;;;;;26.50;11.95;;;;;;;1.89;100.00;101136.25;4953684;29;20038;-59
2022/11/20 02:23:24;;;;;;;23.20;11.93;;;;;;;2.02;100.00;101133.41;4957122;28;20032;-60
2022/11/20 02:25:52;;;;;;;26.30;11.80;;;;;;;1.96;100.00;101124.25;4953767;29;20058;-59
2022/11/20 02:28:18;;;;;;;24.63;11.55;;;;;;;2.15;100.00;101120.84;4954305;28;20044;-60
2022/11/20 02:30:45;;;;;;;24.50;11.20;;;;;;;2.00;100.00;101117.72;4954601;29;20067;-60
2022/11/20 02:33:11;;;;;;;26.95;12.40;;;;;;;1.96;100.00;101120.75;4953489;28;20039;-60
2022/11/20 02:35:42;;;;;;;17.90;8.77;;;;;;;2.03;100.00;101113.97;4953366;28;20063;-60
2022/11/20 02:38:08;;;;;;;28.95;11.95;;;;;;;2.07;100.00;101122.47;4954406;28;20036;-60
2022/11/20 02:40:34;;;;;;;22.67;9.20;;;;;;;2.50;100.00;101128.44;4954909;28;20040;-60
2022/11/20 02:42:59;;;;;;;32.05;12.18;;;;;;;2.28;100.00;101136.44;4954818;29;20028;-60
2022/11/20 02:45:25;;;;;;;29.83;12.27;;;;;;;2.21;100.00;101132.69;4957578;28;20078;-60
2022/11/20 02:47:51;;;;;;;27.33;12.07;;;;;;;2.13;100.00;101125.41;4958344;28;20058;-58
2022/11/20 02:50:17;;;;;;;25.03;11.23;;;;;;;1.95;100.00;101137.56;4958117;28;20059;-60
2022/11/20 02:52:42;;;;;;;28.20;12.90;;;;;;;1.85;100.00;101150.69;4954685;29;20074;-61
2022/11/20 02:55:09;;;;;;;;;;;;;;;2.39;100.00;101150.50;4979631;28;20081;-60
2022/11/20 02:57:34;;;;;;;26.83;11.83;;;;;;;2.31;100.00;101155.63;4987525;28;19918;-60
2022/11/20 03:00:00;;;;;;;26.00;10.07;;;;;;;2.19;100.00;101144.31;4993003;28;20078;-61
2022/11/20 03:02:30;;;;;;;27.77;12.65;;;;;;;1.83;100.00;101137.63;4993761;28;20043;-60
2022/11/20 03:04:55;;;;;;;29.85;13.50;;;;;;;1.70;100.00;101126.44;4979254;28;20065;-61
2022/11/20 03:07:21;;;;;;;26.67;13.37;;;;;;;1.65;100.00;101120.75;4991724;28;20054;-61
2022/11/20 03:09:46;;;;;;;28.37;12.70;;;;;;;1.55;100.00;101120.69;4990806;28;20277;-60
2022/11/20 03:12:13;;;;;;;32.03;13.15;;;;;;;1.53;100.00;101118.16;4986370;28;20068;-61
2022/11/20 03:14:38;;;;;;;28.80;13.23;;;;;;;1.60;100.00;101118.47;4988927;28;20062;-61
2022/11/20 03:17:04;;;;;;;23.65;12.20;;;;;;;1.51;100.00;101119.28;4985360;28;20034;-60
2022/11/20 03:19:30;;;;;;;27.92;12.77;;;;;;;1.45;100.00;101111.84;4984680;28;20031;-61
2022/11/20 03:21:56;;;;;;;30.25;12.65;;;;;;;1.47;100.00;101104.66;4984883;28;20070;-61
2022/11/20 03:24:22;;;;;;;26.50;12.13;;;;;;;1.42;100.00;101107.69;4989104;28;20027;-61
2022/11/20 03:26:47;;;;;;;30.27;12.65;;;;;;;0.95;100.00;101116.78;4977668;28;20042;-60
2022/11/20 03:29:13;;;;;;;31.02;12.70;;;;;;;1.53;100.00;101110.25;4988680;28;20055;-60
2022/11/20 03:31:42;;;;;;;40.87;13.77;;;;;;;1.59;100.00;101106.28;4992507;28;20038;-60
2022/11/20 03:34:10;;;;;;;33.35;13.73;;;;;;;1.59;100.00;101098.34;4992774;28;20042;-61
2022/11/20 03:36:41;;;;;;;30.75;13.77;;;;;;;1.55;100.00;101103.03;4992077;28;20046;-61
2022/11/20 03:39:08;;;;;;;31.15;13.80;;;;;;;1.51;100.00;101101.63;4987455;28;20113;-62
2022/11/20 03:41:39;;;;;;;28.05;12.60;;;;;;;1.42;100.00;101105.06;4992495;28;20022;-61
2022/11/20 03:44:07;;;;;;;26.63;12.25;;;;;;;1.38;100.00;101093.94;4986166;28;20039;-60
2022/11/20 03:46:33;;;;;;;27.90;12.82;;;;;;;1.36;100.00;101090.59;4992474;28;20069;-61
2022/11/20 03:49:00;;;;;;;31.27;13.25;;;;;;;1.33;100.00;101096.13;4984602;28;20058;-61
2022/11/20 03:51:28;;;;;;;31.15;13.65;;;;;;;1.34;100.00;101096.94;4988773;28;20031;-60
2022/11/20 03:53:56;;;;;;;31.90;12.45;;;;;;;1.47;100.00;101092.31;4989401;28;20046;-62
2022/11/20 03:56:30;;;;;;;24.83;11.63;;;;;;;1.31;100.00;101092.78;4987569;28;20039;-61
2022/11/20 03:58:57;;;;;;;38.05;13.80;;;;;;;1.26;100.00;101077.34;4987104;28;20051;-61
2022/11/20 04:01:25;;;;;;;31.57;14.40;;;;;;;1.24;100.00;101079.28;4987363;28;20098;-60
2022/11/20 04:03:53;;;;;;;32.15;13.88;;;;;;;1.29;100.00;101079.72;4985177;28;20269;-61
2022/11/20 04:06:24;;;;;;;26.40;13.40;;;;;;;1.07;100.00;101079.84;4990432;28;20038;-61
2022/11/20 04:08:50;;;;;;;32.38;13.73;;;;;;;0.86;100.00;101078.00;4984332;28;20042;-60
2022/11/20 04:11:25;;;;;;;30.35;13.52;;;;;;;0.95;100.00;101073.78;4991802;28;20034;-61
2022/11/20 04:13:54;;;;;;;29.10;13.20;;;;;;;1.20;100.00;101071.75;4991939;28;20034;-60
2022/11/20 04:16:20;;;;;;;31.48;14.00;;;;;;;1.29;100.00;101068.34;4989705;28;20047;-61
2022/11/20 04:18:46;;;;;;;33.17;13.65;;;;;;;1.31;100.00;101060.31;4989471;28;20035;-62
2022/11/20 04:21:12;;;;;;;45.07;15.13;;;;;;;1.35;100.00;101056.44;4985129;28;20037;-61
2022/11/20 04:23:38;;;;;;;31.65;13.40;;;;;;;1.33;100.00;101053.97;4991402;28;20291;-61
2022/11/20 04:26:11;;;;;;;35.87;13.57;;;;;;;1.36;100.00;101052.84;4988968;28;20102;-61
2022/11/20 04:28:37;;;;;;;30.70;13.68;;;;;;;1.28;100.00;101046.44;4992716;28;20111;-58
2022/11/20 04:31:14;;;;;;;37.03;15.27;;;;;;;1.26;100.00;101052.78;4991890;28;20030;-61
2022/11/20 04:33:41;;;;;;;27.33;12.85;;;;;;;1.10;100.00;101054.09;4991626;28;20099;-60
2022/11/20 04:36:14;;;;;;;26.48;13.50;;;;;;;1.02;100.00;101053.88;4984557;28;20050;-59
2022/11/20 04:38:40;;;;;;;31.73;14.60;;;;;;;1.36;100.00;101056.34;4987703;28;20039;-60
2022/11/20 04:41:07;;;;;;;22.85;10.82;;;;;;;1.30;100.00;101051.59;4989158;28;20031;-59
2022/11/20 04:43:33;;;;;;;31.40;14.05;;;;;;;1.35;100.00;101053.81;4980381;28;20027;-59
2022/11/20 04:46:00;;;;;;;28.10;13.45;;;;;;;1.18;100.00;101050.81;4989792;28;20045;-60
2022/11/20 04:48:27;;;;;;;29.73;13.85;;;;;;;1.34;100.00;101052.13;4989208;28;20050;-60
2022/11/20 04:50:53;;;;;;;29.55;12.45;;;;;;;1.45;100.00;101049.44;5013978;28;20035;-58
2022/11/20 04:53:19;;;;;;;23.77;9.93;;;;;;;1.34;100.00;101046.88;4987141;28;20046;-60
2022/11/20 04:55:45;;;;;;;28.88;12.98;;;;;;;1.89;100.00;101056.31;4989404;28;20114;-60
2022/11/20 04:58:10;;;;;;;30.17;13.48;;;;;;;1.99;100.00;101052.75;4984842;28;20039;-60
2022/11/20 05:00:36;;;;;;;30.08;14.23;;;;;;;1.44;100.00;101050.41;4985235;28;20061;-59
2022/11/20 05:03:03;;;;;;;33.63;13.97;;;;;;;1.33;100.00;101051.31;4987353;28;20039;-60
2022/11/20 05:05:29;;;;;;;30.40;13.68;;;;;;;1.20;100.00;101043.63;4988943;28;20340;-60
2022/11/20 05:07:58;;;;;;;29.73;13.25;;;;;;;1.29;100.00;101042.00;4983978;28;20039;-60
2022/11/20 05:10:25;;;;;;;26.35;12.82;;;;;;;1.21;100.00;101034.75;4991250;28;20122;-60
2022/11/20 05:12:52;;;;;;;31.70;12.93;;;;;;;1.20;100.00;101029.59;4988010;28;20039;-60
2022/11/20 05:15:18;;;;;;;27.17;10.63;;;;;;;1.37;100.00;101018.47;4993881;28;20037;-60
2022/11/20 05:17:51;;;;;;;25.90;13.20;;;;;;;1.45;100.00;101016.97;4992929;28;20046;-60
2022/11/20 05:20:17;;;;;;;28.40;13.68;;;;;;;1.38;100.00;101014.00;4989818;28;20276;-61
2022/11/20 05:22:43;;;;;;;27.35;12.38;;;;;;;1.40;100.00;101020.84;5000626;28;20061;-60
2022/11/20 05:25:09;;;;;;;28.63;13.23;;;;;;;1.36;100.00;101026.50;4991586;28;20030;-60
2022/11/20 05:27:35;;;;;;;30.98;13.85;;;;;;;1.31;100.00;101012.88;4994710;28;20110;-60
2022/11/20 05:30:00;;;;;;;36.25;16.55;;;;;;;1.43;100.00;101011.84;4994581;28;20034;-60
2022/11/20 05:32:26;;;;;;;32.57;14.17;;;;;;;1.46;100.00;101011.59;4987358;28;20038;-60
2022/11/20 05:34:52;;;;;;;29.65;13.60;;;;;;;1.50;100.00;101014.75;4994533;28;20042;-62
2022/11/20 05:37:18;;;;;;;37.42;15.45;;;;;;;1.40;100.00;101017.38;4987749;28;20046;-61
2022/11/20 05:39:43;;;;;;;34.43;14.37;;;;;;;1.25;100.00;101007.16;4991395;28;20031;-62
2022/11/20 05:44:53;;;;;;;35.20;14.88;;;;;;;1.40;100.00;101012.94;4986835;28;20042;-61
2022/11/20 05:47:19;;;;;;;26.60;14.38;;;;;;;1.35;100.00;101012.50;4989331;28;20035;-61
2022/11/20 05:49:45;;;;;;;28.38;13.05;;;;;;;1.37;100.00;101015.84;4993949;28;20053;-60
2022/11/20 05:52:11;;;;;;;30.27;12.57;;;;;;;1.10;100.00;101022.47;4994160;28;20043;-60
2022/11/20 05:54:36;;;;;;;33.38;13.65;;;;;;;1.13;100.00;101024.00;4991347;28;20055;-60
2022/11/20 05:57:02;;;;;;;31.02;15.93;;;;;;;1.06;100.00;101026.34;4989616;28;20046;-61
2022/11/20 05:59:28;;;;;;;35.17;14.87;;;;;;;1.34;100.00;101025.78;4985662;28;20038;-59
2022/11/20 06:01:53;;;;;;;32.95;15.23;;;;;;;1.41;100.00;101037.50;4990317;28;20095;-61
2022/11/20 06:04:19;;;;;;;27.73;11.48;;;;;;;1.33;100.00;101046.06;4985132;28;20039;-61
2022/11/20 06:06:44;;;;;;;34.72;14.15;;;;;;;1.19;100.00;101051.63;4994069;28;20043;-60
2022/11/20 06:09:10;;;;;;;21.38;11.23;;;;;;;1.36;100.00;101050.22;4995081;28;20112;-60
2022/11/20 06:11:36;;;;;;;32.75;14.20;;;;;;;1.37;100.00;101043.97;4985013;28;20038;-61
2022/11/20 06:14:02;;;;;;;28.93;12.10;;;;;;;1.29;100.00;101044.66;5007667;28;20039;-63
2022/11/20 06:16:27;;;;;;;29.27;13.93;;;;;;;1.12;100.00;101048.66;4989690;28;20264;-60
2022/11/20 06:18:53;;;;;;;37.45;15.60;;;;;;;1.05;100.00;101051.00;4987236;28;20035;-60
2022/11/20 06:21:21;;;;;;;28.42;14.15;;;;;;;1.35;100.00;101057.28;4987667;28;20106;-61
2022/11/20 06:23:47;;;;;;;31.63;14.57;;;;;;;1.50;100.00;101054.31;4989499;28;20079;-61
2022/11/20 06:26:24;;;;;;;34.33;16.38;;;;;;;1.29;100.00;101045.47;4983161;28;20031;-60
2022/11/20 06:28:51;;;;;;;32.00;15.70;;;;;;;1.26;100.00;101040.47;4992820;28;20038;-60
2022/11/20 06:31:19;;;;;;;32.45;13.95;;;;;;;1.39;100.00;101037.63;4996931;28;20035;-61
2022/11/20 06:33:46;;;;;;;30.50;15.15;;;;;;;1.36;100.00;101037.03;4987434;28;20035;-60
2022/11/20 06:36:13;;;;;;;24.00;10.68;;;;;;;1.45;100.00;101024.88;4987953;28;20098;-61
2022/11/20 06:38:40;;;;;;;37.40;16.52;;;;;;;1.34;100.00;101031.06;4997020;28;20049;-60
2022/11/20 06:41:09;;;;;;;32.15;15.20;;;;;;;1.45;100.00;101041.53;4987564;28;20045;-61
2022/11/20 06:43:35;;;;;;;35.33;15.18;;;;;;;1.35;100.00;101049.38;4986916;28;20090;-60
2022/11/20 06:46:01;;;;;;;32.07;14.53;;;;;;;1.35;100.00;101045.91;4993487;28;20057;-60
2022/11/20 06:48:27;;;;;;;26.60;12.05;;;;;;;1.48;100.00;101045.69;4989675;28;20034;-60
2022/11/20 06:50:53;;;;;;;34.17;14.63;;;;;;;1.54;100.00;101039.94;4987392;28;20031;-60
2022/11/20 06:53:19;;;;;;;35.28;15.00;;;;;;;1.57;100.00;101040.47;5009635;28;20042;-61
2022/11/20 06:55:46;;;;;;;34.50;16.38;;;;;;;1.47;100.00;101033.47;4987720;28;20035;-60
2022/11/20 06:58:13;;;;;;;38.55;16.40;;;;;;;1.42;100.00;101039.16;4974697;28;20102;-61
2022/11/20 07:00:39;;;;;;;41.90;16.52;;;;;;;1.49;100.00;101021.84;4985901;28;20035;-61
2022/11/20 07:03:06;;;;;;;30.35;13.02;;;;;;;1.50;100.00;101020.88;4993117;28;20086;-60
2022/11/20 07:05:32;;;;;;;39.92;16.70;;;;;;;1.65;100.00;101020.56;4992731;28;20031;-61
2022/11/20 07:07:58;;;;;;;38.33;15.20;;;;;;;1.75;100.00;101016.13;4985025;28;20054;-61
2022/11/20 07:10:25;;;;;;;32.72;14.48;;;;;;;1.80;100.00;101021.84;4989106;28;20098;-60
2022/11/20 07:12:54;;;;;;;33.20;15.43;;;;;;;1.82;100.00;101019.91;4980215;28;20112;-58
2022/11/20 07:15:22;;;;;;;33.10;16.13;;;;;;;1.77;100.00;101018.66;4998873;28;20050;-60
2022/11/20 07:17:48;;;;;;;28.90;13.82;;;;;;;1.85;100.00;101013.53;4990342;28;20056;-60
2022/11/20 07:20:14;;;;;;;31.48;14.70;;;;;;;1.85;100.00;101016.16;4989458;28;20031;-61
2022/11/20 07:22:41;;;;;;;32.15;14.70;;;;;;;1.80;100.00;101008.66;5056625;28;20118;-61
2022/11/20 07:25:08;;;;;;;37.85;15.20;;;;;;;1.80;100.00;101015.75;4984183;28;20067;-61
2022/11/20 07:27:34;;;;;;;34.95;14.75;;;;;;;1.79;100.00;101017.53;4986191;28;20046;-60
2022/11/20 07:30:00;;;;;;;33.35;14.50;;;;;;;1.82;100.00;101011.16;4991331;28;20038;-61
2022/11/20 07:32:25;;;;;;;24.98;11.32;;;;;;;1.85;100.00;101016.16;4983921;28;20073;-59
2022/11/20 07:34:52;;;;;;;35.65;14.15;;;;;;;1.80;100.00;101018.38;4990855;28;20060;-60
2022/11/20 07:37:18;;;;;;;26.05;12.63;;;;;;;1.93;100.00;101018.97;4990321;28;20058;-61
2022/11/20 07:39:43;;;;;;;34.60;14.90;;;;;;;1.95;100.00;101021.47;4990000;28;20050;-61
2022/11/20 07:42:10;;;;;;;29.75;13.98;;;;;;;2.07;100.00;101024.84;4991548;28;20090;-60
2022/11/20 07:44:36;;;;;;;33.97;15.48;;;;;;;2.07;100.00;101022.22;4987060;28;20944;-59
2022/11/20 07:47:03;;;;;;;40.20;16.45;;;;;;;2.14;100.00;101021.53;4986773;28;20050;-60
2022/11/20 07:49:28;;;;;;;31.63;15.85;;;;;;;2.21;100.00;101027.13;4984116;28;20038;-59
2022/11/20 07:51:54;;;;;;;34.37;14.87;;;;;;;2.20;100.00;101032.50;4986386;28;20031;-61
2022/11/20 07:54:22;;;;;;;36.13;15.87;;;;;;;2.20;100.00;101029.88;4987766;28;20334;-60
2022/11/20 07:56:49;;;;;;;32.65;15.27;;;;;;;2.27;100.00;101036.28;4987913;28;20115;-60
2022/11/20 07:59:15;;;;;;;32.58;14.55;;;;;;;2.28;100.00;101030.88;4998897;28;20142;-61
2022/11/20 08:01:41;;;;;;;31.52;14.50;;;;;;;2.28;100.00;101032.66;4986322;28;20091;-61
2022/11/20 08:04:08;;;;;;;28.95;14.05;;;;;;;2.52;100.00;101031.44;4973836;28;20045;-60
2022/11/20 08:06:35;;;;;;;32.92;15.93;;;;;;;2.61;100.00;101022.72;4981260;28;20068;-60
2022/11/20 08:09:00;;;;;;;25.58;12.70;;;;;;;2.88;100.00;101023.81;5006248;28;20022;-60
2022/11/20 08:14:13;;;;;;;33.65;15.52;;;;;;;3.11;100.00;101016.41;4987666;28;20102;-60
2022/11/20 08:16:44;;;;;;;34.58;17.48;;;;;;;3.07;100.00;101014.19;5002252;28;20098;-60
2022/11/20 08:19:11;;;;;;;32.47;15.13;;;;;;;3.04;100.00;101014.50;4991231;28;20065;-61
2022/11/20 08:21:37;;;;;;;35.20;15.05;;;;;;;2.79;100.00;101011.47;4987818;28;20038;-59
2022/11/20 08:24:03;;;;;;;33.95;16.52;;;;;;;2.98;100.00;101013.25;4991407;28;20034;-60
2022/11/20 08:26:28;;;;;;;29.42;13.50;;;;;;;2.79;100.00;101012.28;4988301;28;20035;-60
2022/11/20 08:28:56;;;;;;;24.95;13.40;;;;;;;2.70;100.00;101013.94;4987779;28;20048;-60
2022/11/20 08:31:25;;;;;;;34.13;15.35;;;;;;;2.68;100.00;101013.25;4987780;28;20040;-60
2022/11/20 08:33:50;;;;;;;31.35;15.18;;;;;;;2.73;100.00;101021.59;4988015;28;20072;-61
2022/11/20 08:36:16;;;;;;;34.33;16.33;;;;;;;2.39;100.00;101014.06;4984339;28;20061;-60
2022/11/20 08:38:46;;;;;;;33.35;16.08;;;;;;;2.61;100.00;101021.84;4989413;28;20042;-59
2022/11/20 08:41:23;;;;;;;34.28;14.30;;;;;;;2.97;100.00;101011.56;4983281;28;20058;-60
2022/11/20 08:44:06;;;;;;;32.85;14.95;;;;;;;3.12;100.00;101012.81;4982898;28;20035;-61
2022/11/20 08:46:40;;;;;;;29.70;16.85;;;;;;;3.34;100.00;101024.00;4985082;28;20027;-61
2022/11/20 08:49:08;;;;;;;29.95;14.77;;;;;;;3.53;100.00;101004.63;4989562;28;20039;-60
2022/11/20 08:51:34;;;;;;;29.23;15.20;;;;;;;3.57;100.00;101011.28;4974951;28;20039;-59
2022/11/20 08:54:00;;;;;;;34.88;14.98;;;;;;;3.54;100.00;101011.56;4982959;28;20046;-60
2022/11/20 08:56:27;;;;;;;34.80;14.80;;;;;;;3.51;100.00;101005.72;4980103;28;20026;-60
2022/11/20 08:58:52;;;;;;;25.20;12.10;;;;;;;3.43;100.00;101017.03;4981714;28;20063;-60
2022/11/20 09:01:22;;;;;;;33.42;14.07;;;;;;;3.36;100.00;101023.88;4986627;28;20098;-61
2022/11/20 09:03:49;;;;;;;34.30;15.95;;;;;;;3.30;100.00;101018.19;4988832;28;20051;-60
2022/11/20 09:06:15;;;;;;;30.80;14.82;;;;;;;3.65;100.00;101012.34;4986113;28;20030;-60
2022/11/20 09:08:43;;;;;;;32.55;14.15;;;;;;;3.75;100.00;101007.03;4987854;28;20046;-60
2022/11/20 09:11:09;;;;;;;36.78;15.27;;;;;;;3.68;100.00;101006.75;4984127;28;20035;-60
2022/11/20 09:13:36;;;;;;;29.95;14.45;;;;;;;3.93;100.00;101002.63;4989745;28;20053;-60
2022/11/20 09:16:05;;;;;;;35.15;15.07;;;;;;;3.81;100.00;100993.22;4987372;28;20035;-60
2022/11/20 09:18:32;;;;;;;35.00;14.60;;;;;;;4.29;100.00;100985.97;4984720;28;20039;-60
2022/11/20 09:21:04;;;;;;;33.88;16.27;;;;;;;4.61;100.00;100989.88;5009310;28;20037;-60
2022/11/20 09:23:35;;;;;;;30.15;14.93;;;;;;;4.82;100.00;100983.44;5005083;28;20062;-61
2022/11/20 09:26:03;;;;;;;27.50;14.15;;;;;;;4.87;100.00;100984.66;4985941;28;20031;-60
2022/11/20 09:28:29;;;;;;;30.23;14.80;;;;;;;5.07;100.00;100967.69;4985647;28;20035;-60
2022/11/20 09:30:55;;;;;;;29.08;14.05;;;;;;;5.16;100.00;100978.22;4986602;28;20035;-61
2022/11/20 09:33:20;;;;;;;30.43;14.20;;;;;;;5.17;100.00;100969.25;4983117;28;20046;-60
2022/11/20 09:35:45;;;;;;;29.77;15.10;;;;;;;5.44;100.00;100963.94;4987208;28;20062;-60
2022/11/20 09:38:13;;;;;;;33.17;14.30;;;;;;;5.41;100.00;100975.69;4981406;28;20474;-60
2022/11/20 09:40:45;;;;;;;31.17;14.10;;;;;;;5.12;100.00;100978.69;4988262;28;20050;-61
2022/11/20 09:43:22;;;;;;;28.83;14.68;;;;;;;7.37;100.00;100975.44;4987413;28;20023;-60
2022/11/20 09:46:26;;;;;;;29.25;14.73;;;;;;;7.95;100.00;100978.72;4982952;28;20058;-60
2022/11/20 09:49:06;;;;;;;35.03;15.43;;;;;;;8.44;100.00;100972.25;4970481;28;20049;-61
2022/11/20 09:51:51;;;;;;;30.02;14.80;;;;;;;8.09;100.00;100963.84;4987994;28;20110;-60
2022/11/20 09:54:20;;;;;;;28.85;14.32;;;;;;;8.53;100.00;100969.53;4986093;28;20128;-61
2022/11/20 09:57:00;;;;;;;31.67;15.48;;;;;;;8.43;100.00;100978.59;4949942;29;20035;-59
2022/11/20 09:59:42;;;;;;;31.90;15.85;;;;;;;8.68;100.00;100977.63;4950690;28;20035;-60
2022/11/20 10:02:23;;;;;;;34.25;16.83;;;;;;;8.34;100.00;100974.34;4950424;28;20050;-58
2022/11/20 10:05:01;;;;;;;29.65;15.90;;;;;;;7.44;100.00;100963.13;4952143;29;20089;-61
2022/11/20 10:07:43;;;;;;;36.38;17.25;;;;;;;7.93;100.00;100958.59;4947173;28;20051;-60
2022/11/20 10:10:46;;;;;;;33.80;16.35;;;;;;;8.55;100.00;100952.38;4950472;29;20046;-59
2022/11/20 10:13:30;;;;;;;34.67;16.58;;;;;;;8.68;100.00;100946.44;4951519;28;20052;-61
2022/11/20 10:16:11;;;;;;;34.80;15.82;;;;;;;8.89;100.00;100937.75;4951511;29;20103;-59
2022/11/20 10:18:54;;;;;;;32.90;16.95;;;;;;;9.10;100.00;100938.03;4950339;29;20115;-60
2022/11/20 10:21:30;;;;;;;33.83;17.33;;;;;;;8.43;100.00;100938.63;4948785;29;20039;-60
2022/11/20 10:24:29;;;;;;;29.67;15.90;;;;;;;9.06;100.00;100928.75;4953591;29;20032;-60
2022/11/20 10:27:01;;;;;;;35.03;18.13;;;;;;;8.26;100.00;100924.59;4948102;28;20066;-61
2022/11/20 10:29:33;;;;;;;33.90;16.88;;;;;;;7.97;100.00;100917.28;4951421;29;20046;-61
2022/11/20 10:32:07;;;;;;;39.45;18.25;;;;;;;8.21;100.00;100918.13;4950879;28;20035;-60
2022/11/20 10:34:48;;;;;;;35.35;16.52;;;;;;;8.09;100.00;100918.56;4952723;29;20044;-60
2022/11/20 10:37:20;;;;;;;34.92;16.15;;;;;;;8.51;100.00;100911.09;4950170;29;20032;-59
2022/11/20 10:40:07;;;;;;;35.83;17.80;;;;;;;8.54;100.00;100893.94;4959476;28;20044;-60
2022/11/20 10:42:43;;;;;;;;;;;;;;;8.08;100.00;100892.09;4948503;28;20036;-60
2022/11/20 10:45:21;;;;;;;41.63;17.98;;;;;;;8.14;100.00;100880.72;4952875;28;19915;-60
2022/11/20 10:47:48;;;;;;;41.47;18.67;;;;;;;8.29;100.00;100873.59;4952179;28;20058;-60
2022/11/20 10:50:19;;;;;;;43.78;19.30;;;;;;;8.11;100.00;100865.94;4952618;29;20051;-62
2022/11/20 10:53:12;;;;;;;36.65;17.95;;;;;;;8.59;100.00;100856.88;4949538;28;20043;-58
2022/11/20 10:55:50;;;;;;;39.70;17.80;;;;;;;8.47;100.00;100845.81;4936443;29;20085;-59
2022/11/20 10:58:40;;;;;;;34.80;18.25;;;;;;;8.69;100.00;100836.09;4967677;28;20059;-60
2022/11/20 11:01:15;;;;;;;44.15;19.13;;;;;;;8.49;100.00;100832.28;4971065;28;20043;-61
2022/11/20 11:03:43;;;;;;;42.22;17.98;;;;;;;8.37;100.00;100827.41;4973453;28;20087;-59
2022/11/20 11:06:23;;;;;;;38.22;17.50;;;;;;;8.77;100.00;100821.06;4969414;28;20031;-60
2022/11/20 11:08:53;;;;;;;38.88;18.50;;;;;;;9.54;100.00;100817.06;4967700;28;20059;-59
2022/11/20 11:11:28;;;;;;;41.20;17.35;;;;;;;9.78;100.00;100814.19;4967314;28;20035;-60
2022/11/20 11:14:05;;;;;;;38.65;18.95;;;;;;;9.87;100.00;100816.56;4967857;28;20046;-60
2022/11/20 11:16:31;;;;;;;40.65;18.50;;;;;;;10.22;100.00;100812.34;4970302;28;20043;-60
2022/11/20 11:19:11;;;;;;;40.93;18.33;;;;;;;9.82;100.00;100804.81;4973345;28;20063;-60
2022/11/20 11:21:43;;;;;;;37.92;17.92;;;;;;;9.57;100.00;100803.34;4972684;28;20035;-60
2022/11/20 11:24:20;;;;;;;40.63;18.33;;;;;;;9.81;100.00;100795.97;4975318;28;20043;-58
2022/11/20 11:27:10;;;;;;;43.70;20.52;;;;;;;9.76;100.00;100801.06;4970911;28;20054;-60
2022/11/20 11:29:36;;;;;;;38.42;18.67;;;;;;;9.14;100.00;100800.59;4967374;28;20039;-60